Flight Track Log - Related Links

Times and Time Zones

All times are in EDT time to prevent confusion due to time zone crossing. See the SWA22 flight status page for this flight to view local times or setup timezone preferences in your user account.

Time Position Orientation Groundspeed Altitude Reporting Facility
EDT Latitude Longitude Course Direction KTS MPH feet Rate Location/Type
Thu 02:56:02 PM 32.8833 -96.8833 191° South 181 208 2,800  Level Dallas / Fort Worth TRACON
Thu 02:57:02 PM 32.9000 -96.9500 287° West 226 260 6,100 3,172 Climbing Dallas / Fort Worth TRACON
Thu 02:58:39 PM 32.8267 -97.0400 226° Southwest 267 307 11,100 3,057 Climbing Fort Worth Center
Thu 02:59:39 PM 32.7453 -97.0406 180° South 268 308 14,100 2,700 Climbing Fort Worth Center
Thu 03:00:39 PM 32.6658 -97.0433 182° South 289 333 16,500 2,300 Climbing Fort Worth Center
Thu 03:01:00 PM 32.4058 -97.0745 191° South  Level Estimated
Thu 03:01:39 PM 32.5864 -97.0461 182° South 308 354 18,700  Level Fort Worth Center
Thu 03:02:39 PM 32.4906 -97.0514 183° South 308 354 20,800 1,650 Climbing Fort Worth Center
Thu 03:03:39 PM 32.4092 -97.0542 182° South 319 367 22,000 600 Climbing Fort Worth Center
Thu 03:04:39 PM 32.2983 -97.0594 182° South 346 398 22,000  Level Fort Worth Center
Thu 03:05:39 PM 32.1983 -97.0647 183° South 361 415 22,000  Level Fort Worth Center
Thu 03:06:39 PM 32.0958 -97.0650 180° South 373 429 22,000  Level Fort Worth Center
Thu 03:07:39 PM 31.9936 -97.0681 181° South 368 423 22,000  Level Fort Worth Center
Thu 03:08:39 PM 31.8956 -97.0708 181° South 363 418 22,000  Level Fort Worth Center
Thu 03:09:27 PM 31.8300 -97.0742 182° South 355 409 22,000  Level Houston Center
Thu 03:10:29 PM 31.7292 -97.0778 182° South 359 413 22,000  Level Houston Center
Thu 03:11:31 PM 31.6106 -97.0797 181° South 361 415 22,000  Level Houston Center
Thu 03:12:33 PM 31.5067 -97.0897 185° South 367 422 22,000  Level Houston Center
Thu 03:13:35 PM 31.4136 -97.1300 200° South 355 409 22,000  Level Houston Center
Thu 03:14:37 PM 31.3189 -97.1658 198° South 353 406 22,000  Level Houston Center
Thu 03:15:40 PM 31.2278 -97.2022 199° South 346 398 22,000  Level Houston Center
Thu 03:16:42 PM 31.1386 -97.2367 198° South 337 388 22,000  Level Houston Center
Thu 03:17:44 PM 31.0364 -97.2767 199° South 333 383 22,000  Level Houston Center
Thu 03:18:47 PM 30.9506 -97.3119 199° South 332 382 22,000  Level Houston Center
Thu 03:19:48 PM 30.8617 -97.3442 197° South 338 389 22,000  Level Houston Center
Thu 03:20:50 PM 30.7725 -97.3781 198° South 335 386 22,000  Level Houston Center
Thu 03:21:52 PM 30.6672 -97.4186 198° South 338 389 22,000  Level Houston Center
Thu 03:22:55 PM 30.5756 -97.4536 198° South 342 394 22,000  Level Houston Center
Thu 03:23:57 PM 30.4842 -97.4903 199° South 343 395 22,000  Level Houston Center
Thu 03:24:59 PM 30.3908 -97.5253 198° South 347 399 22,000  Level Houston Center
Thu 03:26:01 PM 30.3078 -97.5786 209° Southwest 338 389 22,000 -97 Level Houston Center
Thu 03:27:03 PM 30.2267 -97.6356 211° Southwest 337 388 21,800 -866 Descending Houston Center
Thu 03:27:38 PM 30.1803 -97.6664 210° Southwest 335 386 20,600 -1,935 Descending Houston Center
Thu 03:28:05 PM 30.1475 -97.6900 212° Southwest 329 379 19,800 -2,286 Descending Houston Center
Thu 03:28:20 PM 30.1175 -97.7106 211° Southwest 329 379 19,000 -2,419 Descending Houston Center
Thu 03:29:07 PM 30.0581 -97.7522 211° Southwest 322 371 17,300 -2,182 Descending Houston Center
Thu 03:30:10 PM 29.9758 -97.8064 210° Southwest 317 365 15,000 -2,074 Descending Houston Center
Thu 03:31:23 PM 29.8900 -97.8797 217° Southwest 311 358 12,600 -1,438 Descending Houston Center
Thu 03:32:11 PM 29.8644 -97.9408 244° Southwest 274 315 12,100 -1,156 Descending Houston Center
Thu 03:33:12 PM 29.8317 -98.0172 244° Southwest 255 293 10,500 -1,770 Descending Houston Center
Thu 03:34:13 PM 29.8011 -98.0933 245° Southwest 261 300 8,500 -1,641 Descending Houston Center
Thu 03:35:20 PM 29.7533 -98.1764 236° Southwest 269 310 7,000 -1,181 Descending Houston Center
Thu 03:36:20 PM 29.6947 -98.2364 222° Southwest 280 322 6,000 -1,091 Descending Houston Center
Thu 03:37:21 PM 29.6406 -98.2839 217° Southwest 244 281 4,800 -945 Descending Houston Center
Thu 03:38:27 PM 29.5822 -98.3389 219° Southwest 251 289 4,000 -703 Descending Houston Center
Thu 03:39:29 PM 29.5264 -98.3675 204° Southwest 206 237 3,300 -873 Descending Houston Center
Thu 03:40:17 PM 29.4972 -98.3925 217° Southwest 150 173 2,400 -991 Descending Houston Center
Thu 03:41:18 PM 29.5033 -98.4350 279° West 130 150 1,500 -789 Descending Houston Center
Thu 03:41:33 PM 29.5100 -98.4433 313° West 141 162 1,400 -545 Descending Houston Center
Thu 03:42:35 PM 29.5367 -98.4761 313° West 137 158 800 -581 Descending Houston Center

Login

Don't have an account? Register now (free) for customized features, flight alerts, and more!